Time;durP1;ratioP1;P1;durP2;ratioP2;P2;SDS_P1;SDS_P2;PMS_P1;PMS_P2;Temp;Humidity;BMP_temperature;BMP_pressure;BME280_temperature;BME280_humidity;BME280_pressure;Samples;Min_cycle;Max_cycle;Signal;HPM_P1;HPM_P2
2022/05/20 00:01:09;;;;;;;;;;;15.70;66.40;;;14.86;62.12;97243.88;4096598;34;19915;-84
2022/05/20 00:03:38;;;;;;;;;;;15.70;66.40;;;14.84;62.24;97238.66;4073934;34;20216;-85
2022/05/20 00:06:07;;;;;;;;;;;15.70;66.30;;;14.84;61.98;97238.66;4073369;34;20154;-85
2022/05/20 00:08:36;;;;;;;;;;;15.70;66.30;;;14.84;62.09;97237.81;4096297;34;20051;-85
2022/05/20 00:11:05;;;;;;;;;;;15.60;66.20;;;14.83;62.09;97241.66;4073804;34;19927;-84
2022/05/20 00:13:33;;;;;;;;;;;15.60;66.30;;;14.82;61.84;97242.75;4095682;34;20112;-85
2022/05/20 00:16:02;;;;;;;;;;;15.60;66.20;;;14.82;62.18;97242.75;4096242;34;19904;-85
2022/05/20 00:18:32;;;;;;;;;;;15.60;66.40;;;14.81;61.96;97238.34;4095821;34;20162;-85
2022/05/20 00:21:01;;;;;;;;;;;15.60;66.20;;;14.80;61.97;97247.72;4073715;34;20227;-85
2022/05/20 00:23:30;;;;;;;;;;;15.60;66.20;;;14.78;61.91;97242.47;4095829;34;19919;-84
2022/05/20 00:25:58;;;;;;;;;;;15.60;66.30;;;14.76;61.88;97243.88;4073489;34;20081;-84
2022/05/20 00:28:29;;;;;;;;;;;15.60;66.20;;;14.76;62.16;97243.88;4073697;34;19905;-85
2022/05/20 00:31:00;;;;;;;;;;;15.60;66.40;;;14.77;62.29;97245.53;4096376;34;19927;-85
2022/05/20 00:33:29;;;;;;;;;;;15.60;66.60;;;14.77;61.94;97234.50;4073279;34;20035;-85
2022/05/20 00:35:59;;;;;;;;;;;15.60;66.20;;;14.77;62.11;97242.75;4073203;34;19912;-85
2022/05/20 00:38:28;;;;;;;;;;;15.60;66.40;;;14.75;62.23;97236.69;4095603;34;19961;-85
2022/05/20 00:40:57;;;;;;;;;;;15.60;66.50;;;14.75;62.22;97240.25;4096531;34;19911;-85
2022/05/20 00:43:34;;;;;;;;;;;15.60;66.60;;;14.75;62.19;97233.94;4095599;34;20044;-85
2022/05/20 00:46:04;;;;;;;;;;;15.60;66.50;;;14.73;62.19;97240.53;4096325;34;19911;-84
2022/05/20 00:48:33;;;;;;;;;;;15.50;67.50;;;14.73;62.05;97240.53;4095581;34;20135;-85
2022/05/20 00:51:07;;;;;;;;;;;15.60;66.50;;;14.70;61.98;97243.84;4095439;34;19980;-85
2022/05/20 00:53:38;;;;;;;;;;;15.50;66.40;;;14.72;62.10;97249.06;4096380;34;19913;-84
2022/05/20 00:56:07;;;;;;;;;;;15.50;66.50;;;14.71;62.10;97247.44;4072904;34;20113;-84
2022/05/20 00:58:35;;;;;;;;;;;15.50;66.40;;;14.71;62.00;97241.94;4073455;34;20005;-85
2022/05/20 01:01:04;;;;;;;;;;;15.50;66.50;;;14.70;62.04;97238.31;4095330;34;19905;-85
2022/05/20 01:03:36;;;;;;;;;;;15.50;66.50;;;14.70;62.29;97235.56;4073347;34;19904;-85
2022/05/20 01:06:06;;;;;;;;;;;15.50;66.70;;;14.69;62.13;97238.59;4072874;34;19911;-84
2022/05/20 01:08:35;;;;;;;;;;;15.50;66.60;;;14.68;62.33;97243.28;4073230;34;19912;-85
2022/05/20 01:11:03;;;;;;;;;;;15.50;66.80;;;14.65;62.39;97238.28;4096243;34;20216;-85
2022/05/20 01:13:32;;;;;;;;;;;15.50;66.80;;;14.64;62.13;97239.41;4095439;34;19905;-84
2022/05/20 01:16:03;;;;;;;;;;;15.50;66.50;;;14.66;62.43;97245.44;4094803;34;19911;-85
2022/05/20 01:18:34;;;;;;;;;;;15.50;67.40;;;14.64;62.04;97242.16;4051722;34;19905;-85
2022/05/20 01:21:03;;;;;;;;;;;15.50;66.50;;;14.66;62.21;97250.13;4052065;34;19905;-84
2022/05/20 01:23:34;;;;;;;;;;;15.50;66.60;;;14.64;62.13;97253.19;4075660;34;19905;-85
2022/05/20 01:26:02;;;;;;;;;;;15.50;66.50;;;14.63;62.45;97251.53;4075248;34;20052;-84
2022/05/20 01:28:32;;;;;;;;;;;15.50;66.80;;;14.63;62.00;97246.00;4097586;34;19912;-84
2022/05/20 01:31:03;;;;;;;;;;;15.50;66.50;;;14.63;62.56;97248.75;4053879;34;20122;-84
2022/05/20 01:33:33;;;;;;;;;;;15.50;66.80;;;14.61;62.37;97245.44;4075395;34;20113;-84
2022/05/20 01:36:03;;;;;;;;;;;15.50;66.80;;;14.61;62.14;97242.69;4075380;34;19909;-84
2022/05/20 01:38:33;;;;;;;;;;;15.50;66.60;;;14.61;62.23;97245.44;4075562;34;19975;-85
2022/05/20 01:41:04;;;;;;;;;;;15.50;66.60;;;14.60;62.36;97240.19;4097366;34;20131;-85
2022/05/20 01:44:00;;;;;;;;;;;15.40;66.60;;;14.60;62.51;97240.19;4097384;34;19982;-85
2022/05/20 01:46:37;;;;;;;;;;;15.40;66.70;;;14.58;62.20;97248.72;4074949;34;19911;-85
2022/05/20 01:49:38;;;;;;;;;;;15.40;66.50;;;14.58;62.42;97249.56;4097377;34;19905;-85
2022/05/20 01:52:15;;;;;;;;;;;15.40;66.60;;;14.57;62.27;97236.91;4082879;34;19904;-85
2022/05/20 01:54:53;;;;;;;;;;;15.40;66.70;;;14.56;62.34;97240.75;4097180;34;19999;-85
2022/05/20 01:57:26;;;;;;;;;;;15.40;66.70;;;14.55;62.27;97235.50;4097704;34;19904;-85
2022/05/20 01:59:58;;;;;;;;;;;15.40;66.70;;;14.55;62.11;97238.25;4097192;34;20070;-85
2022/05/20 02:02:31;;;;;;;;;;;15.40;66.60;;;14.54;62.29;97237.44;4075251;34;19911;-84
2022/05/20 02:05:03;;;;;;;;;;;15.40;66.50;;;14.53;62.33;97237.69;4052777;34;20037;-84
2022/05/20 02:07:33;;;;;;;;;;;15.40;66.70;;;14.54;62.33;97236.59;4073799;34;19905;-84
2022/05/20 02:10:08;;;;;;;;;;;15.40;66.50;;;14.52;61.88;97236.88;4096960;34;19905;-85
2022/05/20 02:12:41;;;;;;;;;;;15.40;66.50;;;14.52;62.17;97244.31;4098028;34;19904;-84
2022/05/20 02:15:13;;;;;;;;;;;15.40;66.70;;;14.51;62.44;97242.66;4097137;34;19912;-85
2022/05/20 02:17:44;;;;;;;;;;;15.40;66.60;;;14.51;62.26;97245.41;4096641;34;20134;-84
2022/05/20 02:20:15;;;;;;;;;;;15.40;66.70;;;14.50;62.36;97241.00;4074908;34;20085;-85
2022/05/20 02:22:55;;;;;;;;;;;15.30;66.70;;;14.49;62.40;97248.41;4074897;34;19905;-85
2022/05/20 02:25:29;;;;;;;;;;;15.30;66.80;;;14.49;62.29;97250.38;4074843;34;19905;-85
2022/05/20 02:28:02;;;;;;;;;;;15.30;66.50;;;14.49;62.18;97244.84;4092011;34;19904;-84
2022/05/20 02:30:32;;;;;;;;;;;15.30;66.50;;;14.46;62.29;97243.44;4074973;34;20132;-85
2022/05/20 02:33:06;;;;;;;;;;;15.30;67.50;;;14.47;62.41;97253.38;4097747;34;20106;-84
2022/05/20 02:35:35;;;;;;;;;;;15.30;66.70;;;14.45;62.18;97249.25;4097786;34;20508;-85
2022/05/20 02:38:08;;;;;;;;;;;15.30;66.80;;;14.46;62.47;97248.94;4074385;34;19904;-84
2022/05/20 02:40:39;;;;;;;;;;;15.30;66.80;;;14.45;62.37;97249.25;4074763;34;20391;-84
2022/05/20 02:43:07;;;;;;;;;;;15.30;66.70;;;14.43;62.31;97247.56;4074694;34;20132;-84
2022/05/20 02:45:36;;;;;;;;;;;15.30;66.70;;;14.45;62.39;97249.25;4074605;34;19905;-84
2022/05/20 02:48:06;;;;;;;;;;;15.30;66.80;;;14.43;62.51;97252.28;4096132;34;19905;-85
2022/05/20 02:50:35;;;;;;;;;;;15.30;66.90;;;14.41;62.45;97255.28;4074580;34;19904;-84
2022/05/20 02:53:04;;;;;;;;;;;15.30;66.80;;;14.41;62.17;97248.94;4096694;34;19912;-84
2022/05/20 02:55:32;;;;;;;;;;;15.30;66.60;;;14.42;62.43;97261.63;4074490;34;19985;-84
2022/05/20 02:58:02;;;;;;;;;;;15.30;66.90;;;14.40;62.31;97248.09;4095846;34;19904;-84
2022/05/20 03:06:03;;;;;;;;;;;15.20;66.50;;;14.39;62.35;97257.47;4096038;34;19912;-84
2022/05/20 03:08:32;;;;;;;;;;;15.20;66.60;;;14.40;62.33;97261.06;4074499;34;20224;-84
2022/05/20 03:11:00;;;;;;;;;;;15.30;66.80;;;14.38;62.45;97261.34;4096382;34;19922;-84
2022/05/20 03:13:30;;;;;;;;;;;15.20;67.50;;;14.39;62.38;97262.16;4097401;34;20314;-84
2022/05/20 03:15:59;;;;;;;;;;;15.20;66.60;;;14.38;62.05;97255.84;4052359;34;19904;-84
2022/05/20 03:18:28;;;;;;;;;;;15.20;66.20;;;14.39;62.45;97257.47;4074341;34;20096;-84
2022/05/20 03:20:56;;;;;;;;;;;15.20;66.70;;;14.39;62.22;97265.72;4074077;34;19955;-84
2022/05/20 03:23:26;;;;;;;;;;;15.30;66.60;;;14.40;62.04;97259.13;4074370;34;20220;-84
2022/05/20 03:25:55;;;;;;;;;;;15.20;66.30;;;14.41;62.31;97262.72;4073757;34;19912;-84
2022/05/20 03:28:23;;;;;;;;;;;15.20;66.70;;;14.40;62.11;97264.63;4069470;34;20144;-85
2022/05/20 03:30:53;;;;;;;;;;;15.30;66.50;;;14.40;62.04;97264.63;4047908;34;19912;-84
2022/05/20 03:33:22;;;;;;;;;;;15.30;66.20;;;14.43;61.88;97275.13;4048268;34;19912;-83
2022/05/20 03:35:51;;;;;;;;;;;15.30;66.20;;;14.44;62.04;97270.47;4070590;34;20222;-83
2022/05/20 03:38:19;;;;;;;;;;;15.30;66.30;;;14.45;61.55;97265.75;4069470;34;20488;-83
2022/05/20 03:40:48;;;;;;;;;;;15.30;65.90;;;14.47;61.94;97263.56;4069721;34;19975;-83
2022/05/20 03:43:16;;;;;;;;;;;15.30;66.20;;;14.48;61.42;97271.56;4069319;34;20216;-84
2022/05/20 03:45:45;;;;;;;;;;;15.30;65.90;;;14.48;61.74;97262.47;4047693;34;20220;-84
2022/05/20 03:48:15;;;;;;;;;;;15.30;66.00;;;14.50;61.25;97258.34;4069314;34;20107;-84
2022/05/20 03:50:44;;;;;;;;;;;15.40;65.50;;;14.51;61.47;97253.69;4069445;34;19912;-84
2022/05/20 03:53:12;;;;;;;;;;;15.40;65.70;;;14.52;61.54;97258.91;4048012;34;20103;-83
2022/05/20 03:55:41;;;;;;;;;;;15.40;65.70;;;14.53;60.96;97262.47;4069545;34;19912;-84
2022/05/20 03:58:10;;;;;;;;;;;15.40;65.40;;;14.55;61.17;97268.56;4069236;34;19905;-84
2022/05/20 04:03:24;;;;;;;;;;;15.40;65.50;;;14.56;60.93;97261.94;4078357;34;20377;-84
2022/05/20 04:05:53;;;;;;;;;;;15.40;65.00;;;14.57;61.49;97269.13;4096835;34;19904;-84
2022/05/20 04:08:22;;;;;;;;;;;15.40;65.60;;;14.58;60.99;97270.78;4095652;34;20140;-84
2022/05/20 04:10:52;;;;;;;;;;;15.40;65.00;;;14.58;61.00;97273.53;4073650;34;19912;-84
2022/05/20 04:13:22;;;;;;;;;;;15.50;64.80;;;14.59;60.73;97269.69;4095717;34;20083;-84
2022/05/20 04:15:51;;;;;;;;;;;15.50;65.00;;;14.62;61.00;97271.91;4073947;34;19912;-84
2022/05/20 04:18:35;;;;;;;;;;;15.50;65.10;;;14.63;60.96;97278.22;4095529;34;19904;-84
2022/05/20 04:21:05;;;;;;;;;;;15.50;65.20;;;14.65;60.81;97293.38;4095765;34;20045;-84
2022/05/20 04:23:34;;;;;;;;;;;15.50;64.90;;;14.66;60.73;97281.28;4076865;34;20344;-84
2022/05/20 04:26:03;;;;;;;;;;;15.50;64.70;;;14.69;60.79;97279.94;4095138;34;19905;-84
2022/05/20 04:28:31;;;;;;;;;;;15.50;64.80;;;14.69;60.93;97274.44;4095763;34;19905;-84
2022/05/20 04:31:02;;;;;;;;;;;15.60;64.90;;;14.71;60.64;97275.81;4095506;34;19912;-84
2022/05/20 04:33:32;;;;;;;;;;;15.60;64.60;;;14.73;60.64;97272.78;4073991;34;19968;-84
2022/05/20 04:36:01;;;;;;;;;;;15.60;64.70;;;14.75;60.91;97276.09;4096124;34;20443;-84
2022/05/20 04:38:31;;;;;;;;;;;15.60;64.90;;;14.76;60.97;97272.25;4095768;34;20552;-84
2022/05/20 04:49:18;;;;;;;;;;;15.70;65.80;;;14.87;61.64;97268.41;4073258;34;20034;-84
2022/05/20 04:51:47;;;;;;;;;;;15.80;65.70;;;14.88;61.56;97275.56;4096585;34;20424;-84
2022/05/20 04:57:02;;;;;;;;;;;15.80;65.70;;;14.92;61.71;97281.38;4098300;34;20113;-85
2022/05/20 04:59:34;;;;;;;;;;;15.80;65.70;;;14.92;62.06;97270.34;4098778;34;19905;-84
2022/05/20 05:02:02;;;;;;;;;;;15.80;66.00;;;14.92;61.97;97270.34;4099028;34;20176;-85
2022/05/20 05:04:33;;;;;;;;;;;15.80;66.20;;;14.94;62.20;97268.16;4075641;34;19904;-84
2022/05/20 05:07:01;;;;;;;;;;;15.80;66.30;;;14.94;62.38;97273.66;4097892;34;20038;-85
2022/05/20 05:09:30;;;;;;;;;;;15.80;66.50;;;14.94;62.04;97267.34;4075757;34;20238;-85
2022/05/20 05:11:58;;;;;;;;;;;15.80;66.10;;;14.94;62.09;97261.81;4098674;34;19911;-85
2022/05/20 05:14:28;;;;;;;;;;;15.80;66.30;;;14.94;61.68;97267.34;4075935;34;19912;-85
2022/05/20 05:16:56;;;;;;;;;;;15.80;66.10;;;14.93;61.89;97266.50;4075322;34;20028;-85
2022/05/20 05:19:25;;;;;;;;;;;15.80;65.90;;;14.93;61.39;97266.50;4097681;34;20055;-85
2022/05/20 05:21:55;;;;;;;;;;;15.80;65.50;;;14.93;61.43;97269.25;4097498;34;19993;-85
2022/05/20 05:24:23;;;;;;;;;;;15.80;65.50;;;14.95;61.54;97271.75;4075506;34;20079;-85
2022/05/20 05:26:52;;;;;;;;;;;15.80;65.60;;;14.95;61.78;97269.00;4098107;34;19912;-85
2022/05/20 05:29:21;;;;;;;;;;;15.80;65.90;;;14.96;61.86;97265.94;4075531;34;19905;-85
2022/05/20 05:31:49;;;;;;;;;;;15.80;66.00;;;14.97;61.89;97273.13;4075589;34;19904;-85
2022/05/20 05:34:18;;;;;;;;;;;15.90;66.10;;;14.98;61.95;97272.03;4075081;34;19904;-85
2022/05/20 05:36:46;;;;;;;;;;;15.90;66.20;;;15.01;62.22;97271.50;4053451;34;19986;-85
2022/05/20 05:39:16;;;;;;;;;;;15.90;66.40;;;15.02;62.01;97270.38;4075657;34;20208;-85
2022/05/20 05:41:45;;;;;;;;;;;15.90;66.30;;;15.06;62.15;97275.34;4053635;34;19905;-85
2022/05/20 05:44:14;;;;;;;;;;;15.90;66.20;;;15.06;62.09;97265.16;4098457;34;20331;-85
2022/05/20 05:46:43;;;;;;;;;;;16.00;66.20;;;15.11;61.82;97267.09;4096876;34;20039;-85
2022/05/20 05:49:11;;;;;;;;;;;16.00;65.90;;;15.17;61.56;97268.72;4098230;34;19912;-85
2022/05/20 05:51:40;;;;;;;;;;;16.00;65.60;;;15.22;61.53;97267.94;4075111;34;20008;-85
2022/05/20 05:54:09;;;;;;;;;;;16.10;65.70;;;15.26;61.40;97272.63;4075118;34;19920;-85
2022/05/20 05:56:39;;;;;;;;;;;16.10;65.60;;;15.30;61.42;97270.94;4096847;34;19961;-85
2022/05/20 05:59:08;;;;;;;;;;;16.10;65.70;;;15.32;61.31;97263.22;4053594;34;19940;-85
2022/05/20 06:01:36;;;;;;;;;;;16.10;65.60;;;15.36;61.67;97265.44;4098186;34;19944;-85
2022/05/20 06:04:05;;;;;;;;;;;16.20;65.50;;;15.37;61.10;97265.16;4053289;34;19912;-85
2022/05/20 06:06:34;;;;;;;;;;;16.20;65.30;;;15.37;61.26;97262.41;4091508;34;19922;-85
2022/05/20 06:09:02;;;;;;;;;;;16.20;65.50;;;15.41;61.87;97273.72;4074997;34;19912;-85
2022/05/20 06:11:31;;;;;;;;;;;16.20;65.30;;;15.42;61.26;97272.63;4097228;34;19905;-85
2022/05/20 06:14:01;;;;;;;;;;;16.20;65.40;;;15.43;61.18;97265.97;4098151;34;20074;-85
2022/05/20 06:16:30;;;;;;;;;;;16.30;65.30;;;15.44;60.91;97264.88;4074671;34;19905;-85
2022/05/20 06:18:59;;;;;;;;;;;16.30;65.40;;;15.46;61.33;97257.16;4097025;34;20234;-85
2022/05/20 06:21:28;;;;;;;;;;;16.30;65.40;;;15.46;61.10;97251.63;4096895;34;19904;-85
2022/05/20 06:23:57;;;;;;;;;;;16.30;65.30;;;15.49;61.13;97256.63;4075074;34;20101;-86
2022/05/20 06:26:25;;;;;;;;;;;16.30;65.30;;;15.50;61.15;97252.75;4096724;34;20479;-85
2022/05/20 06:28:54;;;;;;;;;;;16.30;65.30;;;15.52;61.28;97245.03;4074975;34;20061;-86
2022/05/20 06:31:24;;;;;;;;;;;16.30;65.20;;;15.54;61.06;97247.50;4074884;34;20051;-86
2022/05/20 06:33:53;;;;;;;;;;;16.30;65.30;;;15.55;61.12;97243.63;4074986;34;19905;-85
2022/05/20 06:41:55;;;;;;;;;;;16.40;65.20;;;15.62;60.89;97249.72;4097977;34;19921;-85
2022/05/20 06:44:24;;;;;;;;;;;16.40;65.00;;;15.64;60.60;97237.28;4096821;34;20230;-86
2022/05/20 06:46:54;;;;;;;;;;;16.40;64.90;;;15.67;60.83;97233.13;4096766;34;19912;-85
2022/05/20 06:49:23;;;;;;;;;;;16.50;65.00;;;15.70;60.90;97231.75;4097325;34;19945;-86
2022/05/20 06:51:54;;;;;;;;;;;16.50;65.10;;;15.71;60.84;97238.91;4096574;34;20095;-85
2022/05/20 06:54:23;;;;;;;;;;;16.50;65.00;;;15.75;60.63;97237.25;4096669;34;19904;-85
2022/05/20 06:56:51;;;;;;;;;;;16.50;64.80;;;15.75;60.60;97238.09;4084872;34;19976;-85
2022/05/20 06:59:20;;;;;;;;;;;16.50;64.90;;;15.78;60.53;97242.25;4074498;34;20023;-86
2022/05/20 07:01:49;;;;;;;;;;;16.50;64.80;;;15.81;60.70;97241.69;4096557;34;19926;-85
2022/05/20 07:04:19;;;;;;;;;;;16.60;64.70;;;15.83;60.52;97239.44;4096676;34;20171;-85
2022/05/20 07:06:47;;;;;;;;;;;16.60;64.70;;;15.84;60.38;97235.59;4074061;34;19912;-85
2022/05/20 07:09:16;;;;;;;;;;;16.60;64.70;;;15.87;60.41;97239.78;4074836;34;19912;-86
2022/05/20 07:11:45;;;;;;;;;;;16.60;64.50;;;15.88;60.52;97239.47;4096540;34;20163;-86
2022/05/20 07:14:13;;;;;;;;;;;16.60;64.50;;;15.90;60.43;97234.50;4096627;34;19939;-85
2022/05/20 07:16:43;;;;;;;;;;;16.60;64.60;;;15.91;60.45;97241.69;4074018;34;19916;-85
2022/05/20 07:19:12;;;;;;;;;;;16.70;64.60;;;15.92;60.37;97232.31;4095209;34;20144;-85
2022/05/20 07:21:42;;;;;;;;;;;16.70;64.50;;;15.94;60.17;97241.09;4073802;34;19904;-85
2022/05/20 07:24:10;;;;;;;;;;;16.70;64.40;;;15.94;60.33;97243.06;4074300;34;20167;-84
2022/05/20 07:26:39;;;;;;;;;;;16.70;64.50;;;15.94;60.31;97230.06;4095762;34;19912;-85
2022/05/20 07:29:08;;;;;;;;;;;16.70;64.50;;;15.92;60.44;97232.31;4096215;34;19904;-85
2022/05/20 07:31:37;;;;;;;;;;;16.70;64.50;;;15.95;60.35;97231.72;4074424;34;19912;-86
2022/05/20 07:34:06;;;;;;;;;;;16.70;64.50;;;15.95;60.42;97242.75;4096387;34;20132;-86
2022/05/20 07:36:35;;;;;;;;;;;16.70;64.60;;;15.97;60.25;97233.38;4096585;34;19911;-86
2022/05/20 07:39:07;;;;;;;;;;;16.70;64.40;;;15.98;60.29;97232.28;4097218;34;19905;-86
2022/05/20 07:41:36;;;;;;;;;;;16.80;64.30;;;15.98;60.25;97229.50;4074248;34;19904;-86
2022/05/20 07:44:05;;;;;;;;;;;16.80;64.40;;;16.00;60.26;97230.06;4096244;34;19904;-86
2022/05/20 07:46:34;;;;;;;;;;;16.80;64.30;;;16.01;60.39;97223.44;4073729;34;20381;-86
2022/05/20 07:49:02;;;;;;;;;;;16.80;64.40;;;16.01;60.67;97221.47;4096075;34;20129;-86
2022/05/20 07:51:31;;;;;;;;;;;16.80;64.30;;;16.01;60.28;97224.25;4074037;34;19912;-86
2022/05/20 07:54:06;;;;;;;;;;;16.80;64.50;;;16.03;60.29;97226.75;4052481;34;20103;-87
2022/05/20 07:56:37;;;;;;;;;;;16.80;64.50;;;16.03;60.20;97226.75;4096716;34;20016;-87
2022/05/20 07:59:09;;;;;;;;;;;16.80;64.30;;;16.01;60.54;97217.91;4074065;34;20021;-87
2022/05/20 08:01:41;;;;;;;;;;;16.80;64.40;;;16.01;60.45;97221.47;4096875;34;19905;-87
2022/05/20 08:06:59;;;;;;;;;;;16.80;64.50;;;16.01;60.54;97212.38;4073564;34;19912;-87
2022/05/20 08:09:29;;;;;;;;;;;16.80;64.50;;;16.00;60.59;97213.50;4074098;34;20223;-87
2022/05/20 08:11:58;;;;;;;;;;;16.80;64.70;;;16.01;60.85;97202.16;4095920;34;19908;-87
2022/05/20 08:14:27;;;;;;;;;;;16.80;64.70;;;16.01;60.57;97201.34;4074178;34;20069;-88
2022/05/20 08:16:57;;;;;;;;;;;16.80;64.60;;;16.02;60.58;97203.00;4073374;34;19904;-87
2022/05/20 08:19:25;;;;;;;;;;;16.80;64.70;;;16.02;60.73;97200.22;4073861;34;20007;-86
2022/05/20 08:21:54;;;;;;;;;;;16.80;64.70;;;16.02;60.57;97194.72;4095934;34;19905;-86
2022/05/20 08:24:23;;;;;;;;;;;16.80;64.70;;;16.03;60.59;97199.13;4096179;34;20459;-85
2022/05/20 08:26:53;;;;;;;;;;;16.80;64.70;;;16.00;60.89;97185.88;4095600;34;19905;-86
2022/05/20 08:30:41;;;;;;;;;;;16.80;64.80;;;16.00;60.77;97185.88;4096641;34;19912;-86
2022/05/20 08:33:09;;;;;;;;;;;16.80;64.70;;;15.97;60.88;97189.19;4090990;34;19905;-86
2022/05/20 08:35:38;;;;;;;;;;;16.80;64.80;;;15.97;60.97;97179.00;4096035;34;19904;-86
2022/05/20 08:38:07;;;;;;;;;;;16.80;64.90;;;15.97;60.75;97175.38;4096301;34;20149;-86
2022/05/20 08:40:39;;;;;;;;;;;16.80;64.80;;;15.95;60.88;97175.69;4096596;34;20279;-86
2022/05/20 08:43:09;;;;;;;;;;;16.80;64.90;;;15.95;60.94;97173.72;4073632;34;19973;-86
2022/05/20 08:45:38;;;;;;;;;;;16.80;64.90;;;15.95;61.04;97178.44;4096588;34;19904;-86
2022/05/20 08:48:08;;;;;;;;;;;16.80;64.90;;;15.93;61.03;97177.88;4073290;34;19912;-86
2022/05/20 08:50:39;;;;;;;;;;;16.70;65.10;;;15.92;60.92;97174.31;4095548;34;20243;-86
2022/05/20 08:53:18;;;;;;;;;;;16.80;65.00;;;15.91;61.16;97172.66;4095703;34;19985;-86
2022/05/20 08:55:46;;;;;;;;;;;16.70;65.00;;;15.91;61.14;97163.53;4073756;34;20494;-87
2022/05/20 08:58:19;;;;;;;;;;;16.70;65.20;;;15.89;61.19;97166.59;4073169;34;19912;-86
2022/05/20 09:00:47;;;;;;;;;;;16.70;66.00;;;15.90;61.28;97171.00;4095633;34;19912;-86
2022/05/20 09:03:16;;;;;;;;;;;16.70;65.30;;;15.89;61.21;97165.75;4095727;34;19939;-86
2022/05/20 09:05:45;;;;;;;;;;;16.70;65.30;;;15.88;61.50;97164.94;4096719;34;20121;-86
2022/05/20 09:08:24;;;;;;;;;;;16.70;65.30;;;15.87;61.35;97157.75;4095335;34;20132;-86
2022/05/20 09:10:54;;;;;;;;;;;16.70;65.30;;;15.87;61.44;97154.19;4073685;34;20091;-86
2022/05/20 09:15:43;;;;;;;;;;;16.70;65.50;;;15.86;61.42;97147.00;4095712;34;19935;-86
2022/05/20 09:16:16;;;;;;;;;;;16.70;65.50;;;15.84;61.50;97147.22;4073179;34;19913;-86
2022/05/20 09:18:45;;;;;;;;;;;16.70;65.50;;;15.84;61.49;97144.47;4095151;34;20104;-86
2022/05/20 09:21:28;;;;;;;;;;;16.70;65.60;;;15.84;61.66;97151.94;4073357;34;19929;-86
2022/05/20 09:23:58;;;;;;;;;;;16.70;65.60;;;15.84;61.66;97152.75;4095639;34;20093;-86
2022/05/20 09:26:32;;;;;;;;;;;16.70;65.60;;;15.83;61.60;97148.34;4095057;34;19911;-86
2022/05/20 09:29:07;;;;;;;;;;;16.70;65.70;;;15.83;61.54;97134.53;4073578;34;20108;-86
2022/05/20 09:31:41;;;;;;;;;;;16.60;65.50;;;15.80;61.60;97135.94;4095281;34;20356;-86
2022/05/20 09:34:15;;;;;;;;;;;16.70;65.60;;;15.81;61.69;97134.00;4095349;34;19988;-86
2022/05/20 09:36:49;;;;;;;;;;;16.60;65.50;;;15.80;61.43;97129.59;4072861;34;20628;-87
2022/05/20 09:39:20;;;;;;;;;;;16.60;65.60;;;15.78;61.62;97129.84;4051607;34;20170;-87
2022/05/20 09:41:52;;;;;;;;;;;16.60;65.60;;;15.77;61.82;97130.16;4095620;34;20090;-85
2022/05/20 09:44:24;;;;;;;;;;;16.60;65.70;;;15.76;61.86;97128.50;4053952;34;20087;-87
2022/05/20 09:46:59;;;;;;;;;;;16.60;65.70;;;15.76;61.53;97128.50;4097239;34;19924;-87
2022/05/20 09:49:37;;;;;;;;;;;16.60;65.80;;;15.75;61.83;97124.91;4053530;34;20084;-86
2022/05/20 09:52:18;;;;;;;;;;;16.60;65.80;;;15.75;61.91;97115.78;4075684;34;20203;-87
2022/05/20 09:54:48;;;;;;;;;;;16.60;65.80;;;15.75;61.95;97107.50;4075611;34;19911;-86
2022/05/20 09:57:30;;;;;;;;;;;16.60;66.00;;;15.75;61.94;97107.50;4075220;34;20093;-85
2022/05/20 10:00:04;;;;;;;;;;;16.60;66.00;;;15.74;61.96;97103.94;4082014;34;19905;-86
2022/05/20 10:02:44;;;;;;;;;;;16.60;66.00;;;15.74;62.03;97094.81;4071854;34;19912;-87
2022/05/20 10:05:22;;;;;;;;;;;16.60;66.10;;;15.73;62.01;97091.25;4027973;34;20141;-86
2022/05/20 10:08:04;;;;;;;;;;;16.60;66.00;;;15.73;61.98;97087.66;4071604;34;19912;-87
2022/05/20 10:10:52;;;;;;;;;;;16.60;66.00;;;15.73;62.04;97090.41;4069821;34;19911;-86
2022/05/20 10:13:43;;;;;;;;;;;16.60;66.10;;;15.72;61.98;97083.22;4097316;34;19904;-87
2022/05/20 10:16:22;;;;;;;;;;;16.60;66.10;;;15.70;61.90;97075.25;4074215;34;19911;-86
2022/05/20 10:18:58;;;;;;;;;;;16.60;66.10;;;15.71;62.07;97076.91;4075316;34;20032;-86
2022/05/20 10:21:40;;;;;;;;;;;16.50;66.00;;;15.71;62.03;97076.91;4097186;34;19904;-87
2022/05/20 10:24:50;;;;;;;;;;;16.50;66.00;;;15.70;62.03;97074.41;4090874;34;20163;-86
2022/05/20 10:27:24;;;;;;;;;;;16.50;66.10;;;15.69;62.30;97067.22;4097638;34;19981;-86
2022/05/20 10:32:53;;;;;;;;;;;16.50;66.30;;;15.69;62.15;97067.22;4097168;34;20125;-87
2022/05/20 10:35:27;;;;;;;;;;;16.50;66.10;;;15.68;62.15;97066.41;4096927;34;20020;-87
2022/05/20 10:38:14;;;;;;;;;;;16.50;66.30;;;15.68;62.20;97049.03;4074492;34;20220;-87
2022/05/20 10:40:58;;;;;;;;;;;16.50;66.50;;;15.68;62.30;97057.31;4074803;34;19904;-86
2022/05/20 10:49:40;;;;;;;;;;;16.50;66.60;;;15.65;62.37;97054.00;4074770;34;19904;-86
2022/05/20 10:52:16;;;;;;;;;;;16.50;66.60;;;15.67;62.17;97048.19;4097010;34;19905;-86
2022/05/20 10:55:02;;;;;;;;;;;16.50;66.40;;;15.67;62.49;97050.13;4096861;34;20245;-86
2022/05/20 10:58:11;;;;;;;;;;;16.50;66.50;;;15.65;62.31;97037.44;4074414;34;19966;-87
2022/05/20 11:00:50;;;;;;;;;;;16.50;66.50;;;15.65;62.39;97031.94;4083865;34;19904;-87
2022/05/20 11:04:38;;;;;;;;;;;16.50;66.60;;;15.64;62.54;97027.50;4074846;34;19977;-87
2022/05/20 11:08:04;;;;;;;;;;;16.50;66.60;;;15.65;62.57;97029.16;3985417;35;20492;-87
2022/05/20 11:10:52;;;;;;;;;;;16.50;66.70;;;15.66;62.72;97018.94;3994468;35;19905;-86
2022/05/20 11:13:33;;;;;;;;;;;16.50;66.80;;;15.65;62.25;97018.13;4073497;34;20119;-87
2022/05/20 11:16:17;;;;;;;;;;;16.50;66.70;;;15.65;62.63;97018.13;4097248;34;19911;-86
2022/05/20 11:19:07;;;;;;;;;;;16.50;66.70;;;15.66;62.45;97007.91;4096888;34;19912;-86
2022/05/20 11:21:58;;;;;;;;;;;16.50;66.70;;;15.65;62.50;97007.09;4074612;34;20093;-87
2022/05/20 11:25:02;;;;;;;;;;;16.50;66.60;;;15.65;62.47;97001.56;4097584;34;19912;-88
2022/05/20 11:28:08;;;;;;;;;;;16.50;66.60;;;15.65;62.49;96998.81;4048036;34;19913;-87
2022/05/20 11:30:49;;;;;;;;;;;16.50;66.80;;;15.65;62.28;96998.81;4069972;34;19922;-87
2022/05/20 11:33:31;;;;;;;;;;;16.50;66.70;;;15.64;62.11;97002.66;4048415;34;19905;-87
2022/05/20 11:36:18;;;;;;;;;;;16.50;66.60;;;15.65;62.38;96992.44;4048051;34;19908;-87
2022/05/20 11:39:51;;;;;;;;;;;16.50;66.60;;;15.67;62.54;96989.41;4048109;34;20381;-87
2022/05/20 11:45:41;;;;;;;;;;;16.50;66.60;;;15.67;62.49;96983.91;4070013;34;19905;-88
2022/05/20 11:48:38;;;;;;;;;;;16.50;66.60;;;15.65;62.28;96973.97;4069718;34;19905;-87
2022/05/20 11:51:37;;;;;;;;;;;16.50;66.60;;;15.65;62.48;96973.13;4056208;34;19920;-87
2022/05/20 11:54:12;;;;;;;;;;;16.50;66.60;;;15.66;62.47;96969.25;4069990;34;19916;-87
2022/05/20 11:56:43;;;;;;;;;;;16.50;66.70;;;15.67;62.68;96964.56;4069521;34;19905;-86
2022/05/20 11:59:17;;;;;;;;;;;16.50;66.80;;;15.68;62.47;96960.72;4069908;34;19912;-87
2022/05/20 12:01:48;;;;;;;;;;;16.50;66.70;;;15.67;62.71;96954.34;4091896;34;19905;-87
2022/05/20 12:04:17;;;;;;;;;;;16.50;66.60;;;15.68;62.73;96955.19;4070476;34;19912;-86
2022/05/20 12:06:48;;;;;;;;;;;16.50;66.60;;;15.68;62.55;96963.47;4069318;34;19905;-88
2022/05/20 12:09:38;;;;;;;;;;;16.50;66.60;;;15.67;62.46;96948.00;4047989;34;20010;-87
2022/05/20 12:12:18;;;;;;;;;;;16.50;66.60;;;15.68;62.38;96950.47;4092113;34;20240;-86
2022/05/20 12:15:30;;;;;;;;;;;16.50;66.70;;;15.69;62.10;96951.28;4048064;34;19912;-87
2022/05/20 12:17:59;;;;;;;;;;;16.50;66.60;;;15.69;62.30;96943.00;4069118;34;20124;-87
2022/05/20 12:27:44;;;;;;;;;;;16.50;66.70;;;15.68;62.56;96922.06;3958892;34;19906;-87
2022/05/20 12:30:38;;;;;;;;;;;16.50;66.70;;;15.70;62.56;96920.66;4047924;35;19982;-87
2022/05/20 12:33:22;;;;;;;;;;;16.50;66.80;;;15.69;62.43;96912.66;4062581;35;19905;-88